CheckWX is a tool to help pilots better visualize weather data.  It is not intended as a substitute for an official pre-flight weather briefing.

10:08:35 UTC

MMMX TAF
Licenciado Benito Juarez International Airport
Mexico City, Mexico
TAF AMD MMMX 260720Z 2607/2712 30005KT P6SM BKN020 OVC080 TX22/2621Z TN16/2612Z TEMPO 2607/2610 6SM -RA FM261200 03005KT 6SM HZ SCT020 BKN080 FM261800 13010KT P6SM SCT020 BKN200 FM262200 16012KT P6SM BKN015CB OVC080 TEMPO 2622/2702 3SM TSRA

Jun-26@
07:00 UTC

Jun-26 @ 07:00 UTC

Jun-26@
12:00 UTC

Jun-26 @ 12:00 UTC

TAF AMD MMMX 260720Z 2607/2712 30005KT P6SM BKN020 OVC080 TX22/2621Z TN16/2612Z
Wind
  • 300° at 5 KTS
Cloud Levels
  • Broken at 2,000' AGL
  • Overcast at 8,000' AGL

Jun-26@
07:00 UTC

Jun-26 @ 07:00 UTC

Jun-26@
10:00 UTC

Jun-26 @ 10:00 UTC

TEMPO 2607/2610 6SM -RA

Expired

Conditions
Light Rain

Jun-26@
12:00 UTC

Jun-26 @ 12:00 UTC

Jun-26@
18:00 UTC

Jun-26 @ 18:00 UTC

FM261200 03005KT 6SM HZ SCT020 BKN080

From

From Standard forecast or significant change

Wind
  • 030° at 5 KTS
Conditions
Haze
Cloud Levels
  • Scattered at 2,000' AGL
  • Broken at 8,000' AGL

Jun-26@
18:00 UTC

Jun-26 @ 18:00 UTC

Jun-26@
22:00 UTC

Jun-26 @ 22:00 UTC

FM261800 13010KT P6SM SCT020 BKN200

From

From Standard forecast or significant change

Wind
  • 130° at 10 KTS
Cloud Levels
  • Scattered at 2,000' AGL
  • Broken at 20,000' AGL

Jun-26@
22:00 UTC

Jun-26 @ 22:00 UTC

Jun-27@
02:00 UTC

Jun-27 @ 02:00 UTC

TEMPO 2622/2702 3SM TSRA

Temporary

Temporary Changes expected for less than half the time period

Conditions
Thunderstorm, Rain

Jun-26@
22:00 UTC

Jun-26 @ 22:00 UTC

Jun-27@
12:00 UTC

Jun-27 @ 12:00 UTC

FM262200 16012KT P6SM BKN015CB OVC080

From

From Standard forecast or significant change

Wind
  • 160° at 12 KTS
Cloud Levels
  • Broken at 1,500' AGL
  • Overcast at 8,000' AGL